Goldsboro, Texas
Current Conditions -  °F | °C
As of 11:15 AM on Wednesday 26 Nov 2014 (Local Time) from KCOM Reporting Station
Clear Clear  
Wind Chill: 58°   Ceiling: Unl
Heat Index: 58°   Visibility: 10mi
Dew Point: 32°   Wind: 13mph
Humidity: 37%   Direction: 350°N
Pressure: 30.22"   Gusts: NA
Location:  32.06°N, 99.68°W
Report Text: KCOM 261715Z AUTO 35011KT 10SM CLR 15/00 A3022 RMK AO2 T01451001
Loading
Personal Weather Stations






























Interactive Weather Map New forecast layout! Learn more

10-Day Weather Forecast

Advertisements
Track Severe Weather on mobile